Casper-Natrona County International Airport
KCPR : now visible

Airfield :











YOU CAN JOIN US ON...

 
LOGIN :

Register | Disclaimer

   EN    FR    IT 

 









Legend :    VFR   Marginal VFR   IFR   Intensive IFR   Very Intensive IFR
Visi :
Ceiling :
>= 8 km
>= 3000ft
5 to 8 km
1000 to 3000 ft
1500m to 5 km
500 to 1000 ft
800 to 1500m
200 to 500 ft
< 800m
< 200 ft
Symbols :   Thunderstorms  Fog  Heavy snow  Heavy precipitations  Wind > 20 kt






- Airport Elevation : 5350 ft
- IATA code : CPR


KCPR - Casper-Natrona County International

CURRENT METAR :
  • 021628Z VRB03KT 10SM CLR 21/11 A3012 RMK AO2 T02110111

EXPIRED METARs :
  • 021553Z VRB03KT 10SM CLR 19/11 A3014 RMK AO2 SLP148 T01940111
  • 021453Z 00000KT 10SM CLR 17/10 A3015 RMK AO2 SLP159 T01670100 58002
  • 020253Z AUTO 22011KT 10SM SCT120 16/12 A3007 RMK AO2 PRESFR SLP128 60000 T01610117 58008

TAF KCPR
Valid from the 02 at 12:00 until the 03 at 12:00 UTC


021125Z 0212/0312 23008KT P6SM SCT100 SCT200
FM022000 22010KT P6SM VCSH SCT100 BKN200
PROB30 0221/0301 VRB22G32KT -TSRA SCT060 BKN090CB
FM030300 11009KT P6SM VCSH SCT110 BKN200
FM031000 23007KT P6SM FEW120 SCT200
KZDV FIR / North America



MET'MAP, your aeronautical weather chart ! - Copyright ORBIFLY December 2007 - Disclaimer

ORBIFLY MET'MAP TEAM :

Programming & Development : Alexandra Zaïnal
Original concept : Baudouin d'Aumeries
Technical & hardware support : Manuel Goepfert
Assistance : Marc-Olivier Méhu




SOURCES & CREDITS :

   NOAA       Earth
Advisory